createdAt,value
2019-02-04T05:00:16.687Z,90.10
2019-02-04T05:02:39.702Z,90.00
2019-02-04T05:05:02.311Z,90.30
2019-02-04T05:07:24.838Z,90.50
2019-02-04T05:09:47.334Z,90.70
2019-02-04T05:12:09.854Z,90.70
2019-02-04T05:14:32.278Z,90.50
2019-02-04T06:00:51.382Z,90.70
2019-02-04T06:03:13.906Z,90.60
2019-02-04T06:05:36.732Z,90.50
2019-02-04T06:07:59.227Z,90.50
2019-02-04T06:10:21.703Z,90.60
2019-02-04T06:12:44.198Z,90.70
2019-02-04T07:01:52.202Z,91.10
2019-02-04T07:04:15.811Z,90.90
2019-02-04T07:06:38.391Z,91.30
2019-02-04T07:09:00.938Z,91.10
2019-02-04T07:11:23.382Z,90.90
2019-02-04T07:13:47.003Z,90.90
2019-02-04T08:01:13.863Z,82.90
2019-02-04T08:03:36.396Z,62.90
2019-02-04T08:05:58.919Z,53.60
2019-02-04T08:08:21.638Z,53.10
2019-02-04T08:10:44.038Z,55.90
2019-02-04T08:13:06.434Z,59.00
2019-02-04T09:00:20.676Z,72.80
2019-02-04T09:02:43.314Z,71.30
2019-02-04T09:05:06.630Z,69.00
2019-02-04T09:07:29.110Z,68.40
2019-02-04T09:09:51.658Z,64.10
2019-02-04T09:12:14.466Z,54.20
2019-02-04T09:14:36.978Z,45.20
2019-02-04T09:19:50.485Z,34.40
2019-02-04T09:22:12.994Z,31.50
2019-02-04T09:24:35.611Z,29.40
2019-02-04T09:26:58.138Z,27.90
2019-02-04T09:29:20.638Z,26.20
2019-02-04T09:31:43.134Z,25.20
2019-02-04T09:34:05.661Z,24.10
2019-02-04T09:36:28.355Z,23.00
2019-02-04T09:38:50.898Z,22.80
2019-02-04T09:41:13.406Z,22.10
2019-02-04T09:43:35.930Z,21.90
2019-02-04T09:45:58.433Z,21.60
2019-02-04T09:48:21.101Z,21.00
2019-02-04T09:50:44.582Z,20.40
2019-02-04T09:53:07.107Z,19.90
2019-02-04T09:55:31.817Z,19.30
2019-02-04T09:57:54.331Z,19.30
2019-02-04T10:00:22.519Z,19.00
2019-02-04T10:02:45.312Z,18.90
2019-02-04T10:05:09.149Z,18.50
2019-02-04T10:07:31.646Z,18.50
2019-02-04T10:09:54.219Z,18.40
2019-02-04T10:12:16.714Z,18.20
2019-02-04T10:14:39.302Z,17.90
2019-02-04T11:00:44.116Z,17.60
2019-02-04T11:03:06.670Z,18.50
2019-02-04T11:05:31.031Z,18.60
2019-02-04T11:07:53.556Z,19.70
2019-02-04T11:10:16.975Z,19.80
2019-02-04T11:12:39.588Z,20.40
2019-02-04T11:15:02.155Z,22.00
2019-02-04T12:01:01.222Z,18.40
2019-02-04T12:03:23.830Z,18.40
2019-02-04T12:05:46.347Z,18.20
2019-02-04T12:08:09.311Z,18.80
2019-02-04T12:10:41.282Z,18.00
2019-02-04T12:13:03.819Z,18.30
2019-02-04T13:00:26.254Z,23.10
2019-02-04T13:02:48.925Z,23.20
2019-02-04T13:05:15.298Z,23.50
2019-02-04T13:07:37.722Z,24.20
2019-02-04T13:10:00.227Z,24.10
2019-02-04T13:12:22.671Z,24.30
2019-02-04T13:14:45.161Z,24.30
2019-02-04T13:22:51.078Z,24.80
2019-02-04T13:25:17.764Z,25.50
2019-02-04T13:27:41.757Z,25.40
2019-02-04T13:30:06.456Z,26.50
2019-02-04T13:32:29.674Z,27.50
2019-02-04T13:34:52.933Z,28.10
2019-02-04T13:37:16.479Z,28.10
2019-02-04T13:39:39.712Z,27.60
2019-02-04T13:42:03.567Z,28.10
2019-02-04T13:44:26.728Z,28.60
2019-02-04T13:46:49.962Z,28.20
2019-02-04T13:49:13.445Z,27.80
2019-02-04T13:51:36.668Z,27.50
2019-02-04T13:53:59.898Z,28.20
2019-02-04T13:56:23.109Z,28.30
2019-02-04T13:58:45.694Z,28.10
2019-02-04T14:01:08.174Z,27.70
2019-02-04T14:03:30.674Z,27.60
2019-02-04T14:05:53.187Z,27.50
2019-02-04T14:08:15.688Z,27.60
2019-02-04T14:10:40.747Z,28.00
2019-02-04T14:13:04.889Z,28.40
2019-02-04T15:00:12.988Z,36.10
2019-02-04T15:03:19.663Z,37.00
2019-02-04T15:05:47.578Z,37.90
2019-02-04T15:08:36.253Z,38.60
2019-02-04T15:11:58.666Z,38.50
2019-02-04T15:14:52.787Z,39.10
2019-02-04T16:02:34.326Z,47.50
2019-02-04T16:04:56.906Z,48.00
2019-02-04T16:07:19.440Z,48.30
2019-02-04T16:09:42.050Z,48.70
2019-02-04T16:12:04.678Z,48.90
2019-02-04T16:14:27.597Z,49.30
2019-02-04T17:01:27.520Z,53.60
2019-02-04T17:03:50.483Z,54.10
2019-02-04T17:06:13.019Z,54.90
2019-02-04T17:08:35.552Z,54.80
2019-02-04T17:10:58.058Z,55.10
2019-02-04T17:13:20.605Z,55.80
2019-02-04T17:39:26.649Z,58.20
2019-02-04T17:41:49.844Z,58.10
2019-02-04T17:44:12.667Z,59.00
2019-02-04T17:46:54.959Z,59.30
2019-02-04T17:49:25.850Z,59.70
2019-02-04T17:51:48.388Z,61.10
2019-02-04T17:54:10.891Z,61.70
2019-02-04T17:56:33.583Z,62.70
2019-02-04T17:58:56.475Z,62.50
2019-02-04T18:01:19.011Z,62.50
2019-02-04T18:03:41.619Z,61.80
2019-02-04T18:06:05.221Z,61.80
2019-02-04T18:08:27.739Z,62.90
2019-02-04T18:10:50.318Z,62.10
2019-02-04T18:13:12.841Z,62.10
2019-02-04T19:02:20.755Z,66.50
2019-02-04T19:04:43.427Z,66.30
2019-02-04T19:07:06.782Z,66.10
2019-02-04T19:09:29.370Z,66.50
2019-02-04T19:11:51.793Z,67.00
2019-02-04T19:14:14.210Z,67.90
2019-02-04T20:01:00.386Z,70.30
2019-02-04T20:03:22.905Z,69.80
2019-02-04T20:05:45.543Z,70.10
2019-02-04T20:08:08.082Z,70.10
2019-02-04T20:10:32.147Z,70.80
2019-02-04T20:12:55.195Z,70.30
2019-02-04T21:00:39.723Z,71.60
2019-02-04T21:03:02.473Z,72.10
2019-02-04T21:05:25.187Z,72.20
2019-02-04T21:07:47.826Z,72.70
2019-02-04T21:10:12.658Z,72.10
2019-02-04T21:12:35.402Z,72.30
2019-02-04T21:14:58.124Z,72.80
